createdAt,value
2022-09-10T01:03:24.882Z,100.00
2022-09-10T01:11:38.919Z,100.00
2022-09-10T01:15:22.722Z,100.00
2022-09-10T01:30:23.634Z,100.00
2022-09-10T01:45:23.174Z,100.00
2022-09-10T02:00:23.123Z,100.00
2022-09-10T02:15:22.959Z,100.00
2022-09-10T02:30:22.809Z,100.00
2022-09-10T02:45:22.766Z,100.00
2022-09-10T03:00:26.078Z,100.00
2022-09-10T03:15:23.722Z,100.00
2022-09-10T03:30:23.627Z,100.00
2022-09-10T03:45:23.704Z,100.00
2022-09-10T04:00:29.757Z,100.00
2022-09-10T04:15:23.895Z,100.00
2022-09-10T04:30:25.352Z,100.00
2022-09-10T04:45:23.600Z,100.00
2022-09-10T05:00:27.394Z,100.00
2022-09-10T05:15:23.708Z,100.00
2022-09-10T05:30:23.563Z,100.00
2022-09-10T05:45:24.079Z,100.00
2022-09-10T06:00:34.919Z,100.00
2022-09-10T06:15:24.356Z,100.00
2022-09-10T06:30:31.631Z,100.00
2022-09-10T06:45:24.321Z,100.00
2022-09-10T07:00:29.585Z,100.00
2022-09-10T07:15:23.935Z,100.00
2022-09-10T07:30:25.151Z,100.00
2022-09-10T07:45:23.858Z,100.00
2022-09-10T08:00:23.868Z,100.00
2022-09-10T08:15:24.072Z,100.00
2022-09-10T08:30:28.108Z,100.00
2022-09-10T08:45:24.310Z,100.00
2022-09-10T09:00:26.134Z,100.00
2022-09-10T09:15:23.966Z,100.00
2022-09-10T09:30:26.182Z,100.00
2022-09-10T09:45:23.976Z,100.00
2022-09-10T10:00:28.547Z,100.00
2022-09-10T10:15:24.172Z,100.00
2022-09-10T10:30:33.963Z,100.00
2022-09-10T10:45:24.088Z,100.00
2022-09-10T11:00:33.443Z,100.00
2022-09-10T11:15:24.417Z,100.00
2022-09-10T11:30:33.348Z,100.00
2022-09-10T11:45:33.524Z,100.00
2022-09-10T12:00:44.482Z,100.00
2022-09-10T12:15:23.966Z,100.00
2022-09-10T12:30:30.400Z,100.00
2022-09-10T12:45:23.306Z,96.47
2022-09-10T13:00:24.829Z,94.50
2022-09-10T13:15:23.861Z,94.10
2022-09-10T13:30:23.489Z,95.00
2022-09-10T13:45:23.481Z,97.10
2022-09-10T14:00:38.615Z,97.63
2022-09-10T14:15:23.505Z,99.47
2022-09-10T14:30:30.785Z,99.73
2022-09-10T14:45:23.690Z,97.73
2022-09-10T15:00:28.212Z,96.57
2022-09-10T15:15:23.449Z,97.05
2022-09-10T15:30:23.580Z,94.87
2022-09-10T15:45:23.707Z,100.00
2022-09-10T16:00:24.769Z,100.00
2022-09-10T16:15:23.585Z,100.00
2022-09-10T16:30:23.755Z,97.10
2022-09-10T16:45:24.350Z,97.80
2022-09-10T17:00:26.861Z,100.00
2022-09-10T17:15:23.734Z,100.00
2022-09-10T17:30:26.540Z,100.00
2022-09-10T17:45:23.716Z,100.00
2022-09-10T19:15:23.537Z,100.00
2022-09-10T19:44:44.577Z,100.00
2022-09-10T19:59:44.455Z,100.00
2022-09-10T20:14:44.453Z,100.00
2022-09-10T20:15:23.512Z,100.00
2022-09-10T20:30:27.086Z,100.00
2022-09-10T20:45:23.563Z,100.00
2022-09-10T21:00:48.875Z,100.00
2022-09-10T21:15:23.719Z,100.00
2022-09-10T21:30:24.233Z,100.00
2022-09-10T21:45:26.121Z,100.00
2022-09-10T22:15:23.643Z,100.00
2022-09-10T22:30:23.918Z,100.00
2022-09-10T22:45:23.697Z,100.00
2022-09-10T23:00:24.362Z,100.00
2022-09-10T23:15:23.809Z,100.00
2022-09-10T23:30:23.807Z,100.00
2022-09-10T23:45:23.707Z,100.00
